This is the latest recevied weather packets stored in our database for station/object WO5CID. If no packets are shown the sender has not sent any weather packets the latest 10 day(s).
| Time | Temp. | Humidity | Pressure | Rain* | Wind** | Luminosity | Snow |
|---|---|---|---|---|---|---|---|
| 1777487927 | 32.78° C | 42% | 1013.3 hPa | 0 mm | - | 922 W/m² | - |
| 1777487625 | 32.78° C | 42% | 1013.6 hPa | 0 mm | - | 680 W/m² | - |
| 1777487322 | 31.67° C | 44% | 1013.6 hPa | 0 mm | - | 927 W/m² | - |
| 1777487019 | 31.67° C | 44% | 1013.6 hPa | 0 mm | - | 901 W/m² | - |
| 1777486715 | 31.67° C | 45% | 1013.9 hPa | 0 mm | - | 935 W/m² | - |
| 1777486414 | 31.67° C | 47% | 1014.2 hPa | 0 mm | - | 728 W/m² | - |
| 1777486111 | 31.67° C | 45% | 1014.2 hPa | 0 mm | - | 952 W/m² | - |
| 1777485807 | 31.11° C | 46% | 1014.2 hPa | 0 mm | - | 809 W/m² | - |
| 1777485503 | 30.56° C | 48% | 1014.4 hPa | 0 mm | - | 914 W/m² | - |
| 1777485199 | 30.56° C | 47% | 1014.6 hPa | 0 mm | - | 381 W/m² | - |
| 1777484896 | 31.11° C | 44% | 1014.5 hPa | 0 mm | - | 269 W/m² | - |
| 1777484593 | 31.67° C | 44% | 1014.6 hPa | 0 mm | - | 655 W/m² | - |
| 1777484289 | 31.11° C | 47% | 1014.7 hPa | 0 mm | - | 926 W/m² | - |
| 1777483985 | 31.11° C | 47% | 1014.7 hPa | 0 mm | - | 727 W/m² | - |
| 1777483682 | 30.56° C | 46% | 1014.8 hPa | 0 mm | - | 1051 W/m² | - |
| 1777483377 | 30.56° C | 47% | 1014.8 hPa | 0 mm | - | 1023 W/m² | - |
| 1777483072 | 30.56° C | 48% | 1015 hPa | 0 mm | - | 932 W/m² | - |
| 1777482770 | 30° C | 52% | 1015 hPa | 0 mm | - | 534 W/m² | - |
| 1777482460 | 30° C | 51% | 1015.2 hPa | 0 mm | - | 723 W/m² | - |
| 1777482158 | 30.56° C | 49% | 1015.3 hPa | 0 mm | - | 780 W/m² | - |
| 1777481856 | 30.56° C | 48% | 1015.3 hPa | 0 mm | - | 847 W/m² | - |
| 1777481553 | 29.44° C | 51% | 1015.4 hPa | 0 mm | - | 823 W/m² | - |
| 1777481250 | 29.44° C | 51% | 1015.6 hPa | 0 mm | - | 738 W/m² | - |
| 1777480947 | 30° C | 51% | 1015.6 hPa | 0 mm | - | 649 W/m² | - |
| 1777480642 | 29.44° C | 52% | 1015.6 hPa | 0 mm | - | 749 W/m² | - |
* Rain latest hour (hover to see other rain measurements)
** Current wind speed in m/s (hover to see current wind gust speed)